createdAt,value
2023-05-24T00:01:59.756Z,59.80
2023-05-24T00:04:30.144Z,59.58
2023-05-24T00:06:57.010Z,59.27
2023-05-24T00:09:23.879Z,59.75
2023-05-24T00:11:50.491Z,59.95
2023-05-24T00:14:17.102Z,59.68
2023-05-24T00:16:43.758Z,59.21
2023-05-24T00:19:11.273Z,59.45
2023-05-24T00:21:38.374Z,59.38
2023-05-24T00:24:05.210Z,58.62
2023-05-24T00:26:33.279Z,58.47
2023-05-24T00:28:59.778Z,58.60
2023-05-24T00:31:26.306Z,58.56
2023-05-24T00:33:52.824Z,59.21
2023-05-24T00:36:19.476Z,59.43
2023-05-24T00:38:46.014Z,59.69
2023-05-24T00:41:12.618Z,60.63
2023-05-24T00:43:39.214Z,60.43
2023-05-24T00:46:18.010Z,60.23
2023-05-24T00:48:45.960Z,60.92
2023-05-24T00:51:14.536Z,60.96
2023-05-24T00:53:44.971Z,60.53
2023-05-24T00:56:22.030Z,60.26
2023-05-24T00:58:50.423Z,60.63
2023-05-24T01:01:17.088Z,59.84
2023-05-24T01:03:55.704Z,59.67
2023-05-24T01:06:23.378Z,59.81
2023-05-24T01:09:08.325Z,59.89
2023-05-24T01:11:59.413Z,59.62
2023-05-24T01:14:41.721Z,59.86
2023-05-24T01:17:51.777Z,60.15
2023-05-24T01:20:22.508Z,60.04
2023-05-24T01:23:07.227Z,60.68
2023-05-24T01:25:49.731Z,60.50
2023-05-24T01:28:27.599Z,60.00
2023-05-24T01:31:04.259Z,60.47
2023-05-24T01:33:31.053Z,59.95
2023-05-24T01:35:57.599Z,60.13
2023-05-24T01:38:29.588Z,60.01
2023-05-24T01:41:13.437Z,60.95
2023-05-24T01:43:54.568Z,60.61
2023-05-24T01:46:37.776Z,60.22
2023-05-24T01:49:30.805Z,60.13
2023-05-24T01:52:14.412Z,59.91
2023-05-24T01:54:47.686Z,59.63
2023-05-24T01:57:15.388Z,60.25
2023-05-24T01:59:45.351Z,59.98
2023-05-24T02:02:12.683Z,60.23
2023-05-24T02:04:40.109Z,60.30
2023-05-24T02:07:22.221Z,60.42
2023-05-24T02:09:48.773Z,61.25
2023-05-24T02:12:15.296Z,61.27
2023-05-24T02:14:53.296Z,61.60
2023-05-24T02:17:26.908Z,61.53
2023-05-24T02:19:53.633Z,61.08
2023-05-24T02:22:22.266Z,61.19
2023-05-24T02:24:48.899Z,60.46
2023-05-24T02:27:15.436Z,60.46
2023-05-24T02:29:42.118Z,59.92
2023-05-24T02:32:08.824Z,59.98
2023-05-24T02:34:35.650Z,60.61
2023-05-24T02:37:07.205Z,60.57
2023-05-24T02:39:33.784Z,60.23
2023-05-24T02:42:00.521Z,60.24
2023-05-24T02:44:27.040Z,59.28
2023-05-24T02:46:53.577Z,59.55
2023-05-24T02:49:20.090Z,59.15
2023-05-24T02:51:46.614Z,59.04
2023-05-24T02:54:13.158Z,58.80
2023-05-24T02:56:39.821Z,59.30
2023-05-24T02:59:06.447Z,59.82
2023-05-24T03:01:34.376Z,60.18
2023-05-24T03:04:01.088Z,60.69
2023-05-24T03:06:27.763Z,61.19
2023-05-24T03:08:54.445Z,61.04
2023-05-24T03:11:24.068Z,60.92
2023-05-24T03:13:52.903Z,60.77
2023-05-24T03:16:19.873Z,60.77
2023-05-24T03:18:46.795Z,60.99
2023-05-24T03:21:13.366Z,61.17
2023-05-24T03:23:39.950Z,61.48
2023-05-24T03:26:07.327Z,61.54
2023-05-24T03:28:33.880Z,60.75
2023-05-24T03:31:00.909Z,60.91
2023-05-24T03:33:27.425Z,61.01
2023-05-24T03:35:53.966Z,60.27
2023-05-24T03:38:20.523Z,60.25
2023-05-24T03:40:47.004Z,60.13
2023-05-24T03:43:28.180Z,59.65
2023-05-24T03:45:56.280Z,59.42
2023-05-24T03:48:28.119Z,59.67
2023-05-24T03:50:54.649Z,59.98
2023-05-24T03:53:30.638Z,59.86
2023-05-24T03:55:57.123Z,60.21
2023-05-24T03:58:23.699Z,60.66
2023-05-24T04:00:50.818Z,60.48
2023-05-24T04:03:20.041Z,59.92
2023-05-24T04:05:47.384Z,59.40
2023-05-24T04:08:15.025Z,58.92
2023-05-24T04:10:42.202Z,58.22
2023-05-24T04:13:09.249Z,58.02
2023-05-24T04:15:36.091Z,58.23
2023-05-24T04:18:03.672Z,58.54
2023-05-24T04:20:30.378Z,58.52
2023-05-24T04:22:57.059Z,58.32
2023-05-24T04:25:23.795Z,58.66
2023-05-24T04:27:50.454Z,58.25
2023-05-24T04:30:21.259Z,58.27
2023-05-24T04:32:48.477Z,58.34
2023-05-24T04:35:20.648Z,58.30
2023-05-24T04:37:48.341Z,58.32
2023-05-24T04:40:16.317Z,58.38
2023-05-24T04:42:43.195Z,58.64
2023-05-24T04:45:18.702Z,58.25
2023-05-24T04:47:45.318Z,58.28
2023-05-24T04:50:15.090Z,58.06
2023-05-24T04:52:41.781Z,58.72
2023-05-24T04:55:08.831Z,58.87
2023-05-24T04:57:35.445Z,59.16
2023-05-24T05:00:02.111Z,59.10
2023-05-24T05:02:28.979Z,59.00
2023-05-24T05:04:55.537Z,58.34
2023-05-24T05:07:22.468Z,58.92
2023-05-24T05:09:49.050Z,58.89
2023-05-24T05:12:15.955Z,58.85
2023-05-24T05:14:44.978Z,58.75
2023-05-24T05:17:11.466Z,58.93
2023-05-24T05:19:43.958Z,58.99
2023-05-24T05:22:10.918Z,58.70
2023-05-24T05:24:39.820Z,58.38
2023-05-24T05:27:06.672Z,58.34
2023-05-24T05:29:33.216Z,58.13
2023-05-24T05:31:59.742Z,57.69
2023-05-24T05:34:26.284Z,58.09
2023-05-24T05:36:55.126Z,58.20
2023-05-24T05:39:21.665Z,58.24
2023-05-24T05:41:48.238Z,58.01
2023-05-24T05:44:15.008Z,57.89
2023-05-24T05:46:55.262Z,57.71
2023-05-24T05:49:21.745Z,57.70
2023-05-24T05:51:49.357Z,57.79
2023-05-24T05:54:18.279Z,57.77
2023-05-24T05:56:50.532Z,57.56
2023-05-24T05:59:17.427Z,56.94
2023-05-24T06:01:49.003Z,56.81
2023-05-24T06:04:16.376Z,56.48
2023-05-24T06:06:45.272Z,56.82
2023-05-24T06:09:12.098Z,56.25
2023-05-24T06:11:39.735Z,56.13
2023-05-24T06:14:07.037Z,55.85
2023-05-24T06:16:34.016Z,55.19
2023-05-24T06:19:06.090Z,55.08
2023-05-24T06:21:33.445Z,54.61
2023-05-24T06:24:02.411Z,54.55
2023-05-24T06:26:28.926Z,54.06
2023-05-24T06:28:56.186Z,53.46
2023-05-24T06:31:22.925Z,53.06
2023-05-24T06:33:59.727Z,52.98
2023-05-24T06:36:30.010Z,53.68
2023-05-24T06:38:56.597Z,53.68
2023-05-24T06:41:27.048Z,52.52
2023-05-24T06:43:53.687Z,53.22
2023-05-24T06:46:23.305Z,53.88
2023-05-24T06:48:49.929Z,53.83
2023-05-24T06:51:17.117Z,52.65
2023-05-24T06:53:43.613Z,53.03
2023-05-24T06:56:10.174Z,53.29
2023-05-24T06:58:36.731Z,53.03
2023-05-24T07:01:05.044Z,52.27
2023-05-24T07:03:32.409Z,52.19
2023-05-24T07:05:59.157Z,50.53
2023-05-24T07:08:25.729Z,50.75
2023-05-24T07:10:57.067Z,50.86
2023-05-24T07:13:28.464Z,50.21
2023-05-24T07:15:54.992Z,50.26
2023-05-24T07:18:21.583Z,50.47
2023-05-24T07:20:48.233Z,50.53
2023-05-24T07:23:18.152Z,50.28
2023-05-24T07:25:44.693Z,50.53
2023-05-24T07:28:11.511Z,50.10
2023-05-24T07:30:39.341Z,50.06
2023-05-24T07:33:05.956Z,49.74
2023-05-24T07:35:33.918Z,49.30
2023-05-24T07:38:26.956Z,48.57
2023-05-24T07:40:56.155Z,48.24
2023-05-24T07:43:22.713Z,47.99
2023-05-24T07:45:55.687Z,47.42
2023-05-24T07:48:24.108Z,47.91
2023-05-24T07:51:09.079Z,47.30
2023-05-24T07:53:37.596Z,47.01
2023-05-24T07:56:04.434Z,45.05
2023-05-24T07:58:31.703Z,45.66
2023-05-24T08:00:58.293Z,45.71
2023-05-24T08:03:25.939Z,44.51
2023-05-24T08:05:53.463Z,45.27
2023-05-24T08:08:20.335Z,45.21
2023-05-24T08:10:46.899Z,45.54
2023-05-24T08:13:13.462Z,45.48
2023-05-24T08:15:40.125Z,45.92
2023-05-24T08:18:11.596Z,45.92
2023-05-24T08:20:41.091Z,46.46
2023-05-24T08:23:08.097Z,46.39
2023-05-24T08:25:34.593Z,46.31
2023-05-24T08:28:01.298Z,46.04
2023-05-24T08:30:27.950Z,46.64
2023-05-24T08:32:54.572Z,46.71
2023-05-24T08:35:22.126Z,46.59
2023-05-24T08:37:49.566Z,46.86
2023-05-24T08:40:16.701Z,46.60
2023-05-24T08:42:45.108Z,46.45
2023-05-24T08:45:13.900Z,45.78
2023-05-24T08:47:41.034Z,45.07
2023-05-24T08:50:08.699Z,44.17
2023-05-24T08:52:36.671Z,43.75
2023-05-24T08:55:07.375Z,41.57
2023-05-24T08:57:35.725Z,43.15
2023-05-24T09:00:02.358Z,43.16
2023-05-24T09:02:30.931Z,42.28
2023-05-24T09:04:59.496Z,41.94
2023-05-24T09:07:26.860Z,40.81
2023-05-24T09:10:06.740Z,40.94
2023-05-24T09:12:38.588Z,40.94
2023-05-24T09:15:17.472Z,40.66
2023-05-24T09:17:44.346Z,41.11
2023-05-24T09:20:13.309Z,41.66
2023-05-24T09:22:43.032Z,41.52
2023-05-24T09:25:14.104Z,41.92
2023-05-24T09:27:41.459Z,42.05
2023-05-24T09:30:12.420Z,41.71
2023-05-24T09:32:39.270Z,42.36
2023-05-24T09:35:09.968Z,42.05
2023-05-24T09:37:38.755Z,42.38
2023-05-24T09:40:10.908Z,42.14
2023-05-24T09:42:38.057Z,42.36
2023-05-24T09:45:12.132Z,42.16
2023-05-24T09:47:54.854Z,40.44
2023-05-24T09:50:21.643Z,40.99
2023-05-24T09:52:48.286Z,40.79
2023-05-24T09:55:16.266Z,40.52
2023-05-24T09:58:04.457Z,40.27
2023-05-24T10:00:41.290Z,39.88
2023-05-24T10:03:15.094Z,39.68
2023-05-24T10:05:46.666Z,39.67
2023-05-24T10:08:14.560Z,39.38
2023-05-24T10:10:43.365Z,39.60
2023-05-24T10:13:11.550Z,40.18
2023-05-24T10:15:38.473Z,39.81
2023-05-24T10:18:10.623Z,39.66
2023-05-24T10:20:41.084Z,40.27
2023-05-24T10:23:12.934Z,39.94
2023-05-24T10:25:51.077Z,39.39
2023-05-24T10:28:21.457Z,39.87
2023-05-24T10:31:03.199Z,38.25
2023-05-24T10:33:34.542Z,39.88
2023-05-24T10:36:03.937Z,39.77
2023-05-24T10:38:33.903Z,38.70
2023-05-24T10:41:00.690Z,38.86
2023-05-24T10:43:27.410Z,39.26
2023-05-24T10:45:54.003Z,39.71
2023-05-24T10:48:26.270Z,39.08
2023-05-24T10:50:53.037Z,38.30
2023-05-24T10:53:27.286Z,38.23
2023-05-24T10:56:01.062Z,37.59
2023-05-24T10:58:58.844Z,38.07
2023-05-24T11:01:33.557Z,38.70
2023-05-24T11:04:18.185Z,37.81
2023-05-24T11:07:01.561Z,37.96
2023-05-24T11:09:28.263Z,38.02
2023-05-24T11:12:00.693Z,38.21
2023-05-24T11:14:29.363Z,37.40
2023-05-24T11:16:57.855Z,37.05
2023-05-24T11:19:32.804Z,36.60
2023-05-24T11:22:00.956Z,37.16
2023-05-24T11:24:34.218Z,37.15
2023-05-24T11:27:05.309Z,37.15
2023-05-24T11:29:31.933Z,37.07
2023-05-24T11:32:07.873Z,37.53
2023-05-24T11:34:35.224Z,37.53
2023-05-24T11:37:03.223Z,37.42
2023-05-24T11:39:35.466Z,37.45
2023-05-24T11:42:06.569Z,37.53
2023-05-24T11:44:34.202Z,37.36
2023-05-24T11:47:07.368Z,37.09
2023-05-24T11:49:34.716Z,36.83
2023-05-24T11:52:02.639Z,36.56
2023-05-24T11:54:30.191Z,36.50
2023-05-24T11:56:57.300Z,36.53
2023-05-24T11:59:30.974Z,36.67
2023-05-24T12:02:04.403Z,36.92
2023-05-24T12:04:33.139Z,36.75
2023-05-24T12:07:00.463Z,37.02
2023-05-24T12:09:27.930Z,37.32
2023-05-24T12:11:55.310Z,37.42
2023-05-24T12:14:32.872Z,37.64
2023-05-24T12:17:00.947Z,38.34
2023-05-24T12:19:38.839Z,38.34
2023-05-24T12:22:12.712Z,38.67
2023-05-24T12:24:39.244Z,38.36
2023-05-24T12:27:13.929Z,37.08
2023-05-24T12:29:46.830Z,37.23
2023-05-24T12:32:14.667Z,37.67
2023-05-24T12:34:43.706Z,37.72
2023-05-24T12:37:21.254Z,37.38
2023-05-24T12:39:51.240Z,37.00
2023-05-24T12:42:19.502Z,37.43
2023-05-24T12:44:46.052Z,37.61
2023-05-24T12:47:12.818Z,38.04
2023-05-24T12:49:45.126Z,38.33
2023-05-24T12:52:12.608Z,38.72
2023-05-24T12:54:42.005Z,39.03
2023-05-24T12:57:09.103Z,39.17
2023-05-24T12:59:35.667Z,39.72
2023-05-24T13:02:02.510Z,39.45
2023-05-24T13:04:31.506Z,39.29
2023-05-24T13:06:58.030Z,40.24
2023-05-24T13:09:25.951Z,40.60
2023-05-24T13:11:54.087Z,40.16
2023-05-24T13:14:21.325Z,39.76
2023-05-24T13:17:02.376Z,39.44
2023-05-24T13:19:29.487Z,39.29
2023-05-24T13:21:56.064Z,39.16
2023-05-24T13:24:23.177Z,38.63
2023-05-24T13:26:52.256Z,38.37
2023-05-24T13:29:34.101Z,38.15
2023-05-24T13:32:03.637Z,37.44
2023-05-24T13:34:41.508Z,37.86
2023-05-24T13:37:08.764Z,38.22
2023-05-24T13:39:35.526Z,38.46
2023-05-24T13:42:02.592Z,38.73
2023-05-24T13:44:29.453Z,38.51
2023-05-24T13:46:56.568Z,38.53
2023-05-24T13:49:23.205Z,38.22
2023-05-24T13:51:50.477Z,38.19
2023-05-24T13:54:17.521Z,37.97
2023-05-24T13:56:44.846Z,37.59
2023-05-24T13:59:11.975Z,37.59
2023-05-24T14:01:39.139Z,37.75
2023-05-24T14:04:07.014Z,36.37
2023-05-24T14:06:48.784Z,37.35
2023-05-24T14:09:15.566Z,37.38
2023-05-24T14:11:42.121Z,37.76
2023-05-24T14:16:38.128Z,37.19
2023-05-24T14:19:04.703Z,37.19
2023-05-24T14:21:32.307Z,37.50
2023-05-24T14:23:58.960Z,37.54
2023-05-24T14:26:25.528Z,37.92
2023-05-24T14:28:55.257Z,37.88
2023-05-24T14:31:25.878Z,37.99
2023-05-24T14:33:52.509Z,38.08
2023-05-24T14:36:19.243Z,38.02
2023-05-24T14:38:46.170Z,38.10
2023-05-24T14:41:12.813Z,37.91
2023-05-24T14:43:40.297Z,37.66
2023-05-24T14:46:06.860Z,37.79
2023-05-24T14:48:33.393Z,37.55
2023-05-24T14:50:59.969Z,37.69
2023-05-24T14:53:26.585Z,38.06
2023-05-24T14:55:54.299Z,38.13
2023-05-24T14:58:21.082Z,37.98
2023-05-24T15:00:47.985Z,37.50
2023-05-24T15:03:14.985Z,37.83
2023-05-24T15:05:42.779Z,37.95
2023-05-24T15:08:13.694Z,38.04
2023-05-24T15:10:40.591Z,37.93
2023-05-24T15:13:08.046Z,38.12
2023-05-24T15:15:34.551Z,38.29
2023-05-24T15:18:01.231Z,38.12
2023-05-24T15:20:28.040Z,38.34
2023-05-24T15:22:54.870Z,38.53
2023-05-24T15:25:22.246Z,39.03
2023-05-24T15:27:48.864Z,39.02
2023-05-24T15:30:19.956Z,38.97
2023-05-24T15:32:46.826Z,39.50
2023-05-24T15:35:17.335Z,39.68
2023-05-24T15:37:43.917Z,39.19
2023-05-24T15:40:13.688Z,39.50
2023-05-24T15:42:40.274Z,39.32
2023-05-24T15:45:07.624Z,39.46
2023-05-24T15:47:39.477Z,39.66
2023-05-24T15:50:08.448Z,40.24
2023-05-24T15:52:36.023Z,40.87
2023-05-24T15:55:02.558Z,40.96
2023-05-24T15:57:29.077Z,41.08
2023-05-24T15:59:55.589Z,41.27
2023-05-24T16:02:22.383Z,41.75
2023-05-24T16:04:49.974Z,41.42
2023-05-24T16:07:18.066Z,41.94
2023-05-24T16:09:46.758Z,41.87
2023-05-24T16:12:13.338Z,41.73
2023-05-24T16:14:39.891Z,42.08
2023-05-24T16:17:06.661Z,42.04
2023-05-24T16:19:36.126Z,42.14
2023-05-24T16:22:03.085Z,42.78
2023-05-24T16:24:29.606Z,42.62
2023-05-24T16:26:57.322Z,42.52
2023-05-24T16:29:24.579Z,42.72
2023-05-24T16:31:51.086Z,42.44
2023-05-24T16:34:38.749Z,42.78
2023-05-24T16:37:11.632Z,43.12
2023-05-24T16:39:38.571Z,42.68
2023-05-24T16:42:07.043Z,42.74
2023-05-24T16:44:33.621Z,42.88
2023-05-24T16:47:00.153Z,42.75
2023-05-24T16:49:26.641Z,43.01
2023-05-24T16:51:53.177Z,42.94
2023-05-24T16:54:19.759Z,43.13
2023-05-24T16:56:46.300Z,43.28
2023-05-24T16:59:12.884Z,43.79
2023-05-24T17:01:40.109Z,44.04
2023-05-24T17:04:07.053Z,44.08
2023-05-24T17:06:33.659Z,44.36
2023-05-24T17:09:00.186Z,44.29
2023-05-24T17:11:26.668Z,44.09
2023-05-24T17:13:53.196Z,43.73
2023-05-24T17:16:20.597Z,42.99
2023-05-24T17:18:47.328Z,42.83
2023-05-24T17:21:14.036Z,43.15
2023-05-24T17:23:40.649Z,44.01
2023-05-24T17:26:11.349Z,44.09
2023-05-24T17:28:37.853Z,44.62
2023-05-24T17:31:04.540Z,44.56
2023-05-24T17:33:41.377Z,45.29
2023-05-24T17:36:09.449Z,45.46
2023-05-24T17:38:39.506Z,45.35
2023-05-24T17:41:09.645Z,45.36
2023-05-24T17:43:39.112Z,45.65
2023-05-24T17:46:08.309Z,45.43
2023-05-24T17:48:37.340Z,45.54
2023-05-24T17:51:07.443Z,45.79
2023-05-24T17:53:35.293Z,44.63
2023-05-24T17:56:03.168Z,45.15
2023-05-24T17:58:30.860Z,45.20
2023-05-24T18:00:58.660Z,45.26
2023-05-24T18:03:25.344Z,45.22
2023-05-24T18:05:51.881Z,44.81
2023-05-24T18:08:18.985Z,44.49
2023-05-24T18:10:45.806Z,45.03
2023-05-24T18:13:12.607Z,44.83
2023-05-24T18:15:39.121Z,44.96
2023-05-24T18:18:05.999Z,44.54
2023-05-24T18:20:32.695Z,44.43
2023-05-24T18:22:59.548Z,43.20
2023-05-24T18:25:34.569Z,43.54
2023-05-24T18:28:01.956Z,44.18
2023-05-24T18:30:28.656Z,44.66
2023-05-24T18:35:29.668Z,45.05
2023-05-24T18:38:01.964Z,45.31
2023-05-24T18:40:28.509Z,45.28
2023-05-24T18:42:55.086Z,45.61
2023-05-24T18:45:21.853Z,45.75
2023-05-24T18:47:48.390Z,46.04
2023-05-24T18:50:16.954Z,46.34
2023-05-24T18:52:46.344Z,46.39
2023-05-24T18:55:23.249Z,46.69
2023-05-24T18:57:55.050Z,46.33
2023-05-24T19:00:22.820Z,46.60
2023-05-24T19:02:49.840Z,46.76
2023-05-24T19:05:16.657Z,46.85
2023-05-24T19:07:43.285Z,47.12
2023-05-24T19:10:10.223Z,47.51
2023-05-24T19:12:36.805Z,47.63
2023-05-24T19:15:10.043Z,47.54
2023-05-24T19:17:36.640Z,47.59
2023-05-24T19:20:03.794Z,47.45
2023-05-24T19:22:33.320Z,47.57
2023-05-24T19:24:59.901Z,47.82
2023-05-24T19:27:36.273Z,47.61
2023-05-24T19:30:05.329Z,48.07
2023-05-24T19:32:31.886Z,48.88
2023-05-24T19:34:58.454Z,49.02
2023-05-24T19:37:24.985Z,49.45
2023-05-24T19:39:51.509Z,49.79
2023-05-24T19:42:18.153Z,49.72
2023-05-24T19:44:44.689Z,49.85
2023-05-24T19:47:11.235Z,50.08
2023-05-24T19:49:37.835Z,50.05
2023-05-24T19:52:07.067Z,50.21
2023-05-24T19:54:33.602Z,50.70
2023-05-24T19:57:01.684Z,50.81
2023-05-24T19:59:28.360Z,51.06
2023-05-24T20:01:54.988Z,51.68
2023-05-24T20:04:21.928Z,52.13
2023-05-24T20:06:48.459Z,52.28
2023-05-24T20:09:18.745Z,52.58
2023-05-24T20:11:51.333Z,53.39
2023-05-24T20:14:18.081Z,53.62
2023-05-24T20:16:44.727Z,53.46
2023-05-24T20:19:11.870Z,53.71
2023-05-24T20:21:38.394Z,54.12
2023-05-24T20:24:05.467Z,53.72
2023-05-24T20:26:33.326Z,54.47
2023-05-24T20:29:05.033Z,54.40
2023-05-24T20:31:31.665Z,54.66
2023-05-24T20:33:58.274Z,55.42
2023-05-24T20:36:30.586Z,54.91
2023-05-24T20:38:57.120Z,55.48
2023-05-24T20:41:23.888Z,55.67
2023-05-24T20:43:51.382Z,55.59
2023-05-24T20:46:18.148Z,55.37
2023-05-24T20:48:44.916Z,55.59
2023-05-24T20:51:11.403Z,56.16
2023-05-24T20:53:38.924Z,56.12
2023-05-24T20:56:05.650Z,55.34
2023-05-24T20:58:32.202Z,55.85
2023-05-24T21:00:59.212Z,56.00
2023-05-24T21:03:25.882Z,55.62
2023-05-24T21:05:52.448Z,56.28
2023-05-24T21:08:19.047Z,56.25
2023-05-24T21:10:48.199Z,56.20
2023-05-24T21:13:14.824Z,56.26
2023-05-24T21:15:43.758Z,56.28
2023-05-24T21:18:11.908Z,56.68
2023-05-24T21:20:38.642Z,56.97
2023-05-24T21:23:05.164Z,57.27
2023-05-24T21:25:43.506Z,56.74
2023-05-24T21:28:13.880Z,56.47
2023-05-24T21:30:40.391Z,56.51
2023-05-24T21:33:07.017Z,57.68
2023-05-24T21:35:33.602Z,57.38
2023-05-24T21:38:00.638Z,57.38
2023-05-24T21:40:27.166Z,56.99
2023-05-24T21:42:53.917Z,57.53
2023-05-24T21:45:20.480Z,57.73
2023-05-24T21:47:47.040Z,58.22
2023-05-24T21:50:13.585Z,58.27
2023-05-24T21:52:43.142Z,58.38
2023-05-24T21:55:10.088Z,58.30
2023-05-24T21:57:36.670Z,57.71
2023-05-24T22:00:04.113Z,57.50
2023-05-24T22:02:31.830Z,57.55
2023-05-24T22:04:58.414Z,57.17
2023-05-24T22:07:24.912Z,57.81
2023-05-24T22:12:32.933Z,57.58
2023-05-24T22:15:03.105Z,57.54
2023-05-24T22:17:32.744Z,58.02
2023-05-24T22:20:02.268Z,58.27
2023-05-24T22:22:29.797Z,58.56
2023-05-24T22:25:01.840Z,59.02
2023-05-24T22:27:29.577Z,59.52
2023-05-24T22:29:56.226Z,58.96
2023-05-24T22:32:29.483Z,58.58
2023-05-24T22:34:56.100Z,58.09
2023-05-24T22:37:22.633Z,57.95
2023-05-24T22:39:49.183Z,58.02
2023-05-24T22:42:15.953Z,58.00
2023-05-24T22:44:42.466Z,57.70
2023-05-24T22:47:11.914Z,57.49
2023-05-24T22:49:38.479Z,57.29
2023-05-24T22:52:06.939Z,58.06
2023-05-24T22:54:33.498Z,57.80
2023-05-24T22:57:00.040Z,57.29
2023-05-24T22:59:26.555Z,56.77
2023-05-24T23:01:53.181Z,56.67
2023-05-24T23:04:21.831Z,57.05
2023-05-24T23:06:52.855Z,58.56
2023-05-24T23:09:28.822Z,58.77
2023-05-24T23:11:58.535Z,58.70
2023-05-24T23:14:25.396Z,59.05
2023-05-24T23:16:51.955Z,59.33
2023-05-24T23:19:19.090Z,59.69
2023-05-24T23:21:45.957Z,59.53
2023-05-24T23:24:21.899Z,59.86
2023-05-24T23:26:48.541Z,59.37
2023-05-24T23:29:15.188Z,58.53
2023-05-24T23:31:48.117Z,58.60
2023-05-24T23:34:14.739Z,58.82
2023-05-24T23:36:45.718Z,57.96
2023-05-24T23:39:12.643Z,58.12
2023-05-24T23:41:39.233Z,58.29
2023-05-24T23:44:05.853Z,57.52
2023-05-24T23:46:39.902Z,57.03
2023-05-24T23:49:06.492Z,57.20
2023-05-24T23:51:33.466Z,57.54
2023-05-24T23:54:03.099Z,58.48
2023-05-24T23:56:29.604Z,58.63
2023-05-24T23:58:56.178Z,57.39
